Time;durP1;ratioP1;P1;durP2;ratioP2;P2;SDS_P1;SDS_P2;PMS_P1;PMS_P2;Temp;Humidity;BMP_temperature;BMP_pressure;BME280_temperature;BME280_humidity;BME280_pressure;Samples;Min_cycle;Max_cycle;Signal;HPM_P1;HPM_P2
2023/03/22 00:01:12;;;;;;;14.00;12.03;;;;;;;7.81;74.22;99236.20;1740951;80;20990;-57
2023/03/22 00:03:39;;;;;;;18.52;13.05;;;;;;;7.79;74.84;99236.28;1732458;80;22278;-57
2023/03/22 00:06:07;;;;;;;16.75;13.32;;;;;;;7.77;74.36;99230.30;1744036;80;21477;-57
2023/03/22 00:08:33;;;;;;;15.60;12.82;;;;;;;7.80;74.57;99227.56;1735445;80;20987;-57
2023/03/22 00:11:00;;;;;;;16.27;13.58;;;;;;;7.80;74.85;99228.02;1732417;80;21081;-57
2023/03/22 00:13:27;;;;;;;18.35;13.08;;;;;;;7.80;74.04;99223.66;1729323;81;21572;-57
2023/03/22 00:15:54;;;;;;;19.70;13.83;;;;;;;7.82;74.53;99223.14;1733535;81;21060;-57
2023/03/22 00:18:21;;;;;;;17.00;13.60;;;;;;;7.80;74.68;99219.77;1730002;80;21042;-57
2023/03/22 00:20:53;;;;;;;17.35;13.98;;;;;;;7.82;74.97;99217.95;1731503;80;21516;-57
2023/03/22 00:23:20;;;;;;;23.05;14.20;;;;;;;7.82;74.44;99215.34;1721507;80;21107;-57
2023/03/22 00:25:47;;;;;;;20.32;14.45;;;;;;;7.83;75.00;99215.72;1740289;80;21006;-56
2023/03/22 00:28:15;;;;;;;17.90;14.53;;;;;;;7.83;74.71;99214.42;1731596;80;20962;-57
2023/03/22 00:30:42;;;;;;;17.92;14.47;;;;;;;7.84;74.98;99210.94;1739845;80;21295;-57
2023/03/22 00:33:09;;;;;;;19.92;15.30;;;;;;;7.82;74.73;99211.45;1733899;80;21140;-57
2023/03/22 00:35:35;;;;;;;19.43;14.47;;;;;;;7.81;76.03;99209.77;1726634;81;21529;-57
2023/03/22 00:38:04;;;;;;;17.35;14.65;;;;;;;7.81;75.32;99208.47;1736604;80;21106;-56
2023/03/22 00:40:30;;;;;;;20.65;14.83;;;;;;;7.81;75.38;99198.08;1718603;81;21120;-57
2023/03/22 00:42:57;;;;;;;17.77;15.47;;;;;;;7.80;75.31;99196.38;1733044;80;20990;-56
2023/03/22 00:45:23;;;;;;;19.02;15.45;;;;;;;7.84;75.02;99195.34;1740204;80;20989;-57
2023/03/22 00:47:50;;;;;;;22.00;16.12;;;;;;;7.84;75.20;99186.24;1726774;80;21091;-57
2023/03/22 00:50:16;;;;;;;20.70;16.05;;;;;;;7.83;75.95;99186.30;1728262;80;21120;-57
2023/03/22 00:52:42;;;;;;;21.60;16.17;;;;;;;7.81;76.31;99182.48;1729652;80;21567;-57
2023/03/22 00:55:09;;;;;;;20.48;16.73;;;;;;;7.82;75.68;99178.96;1731583;80;21072;-56
2023/03/22 00:57:36;;;;;;;20.68;16.85;;;;;;;7.81;75.94;99174.69;1738059;80;21620;-58
2023/03/22 01:00:11;;;;;;;21.02;16.75;;;;;;;7.79;76.22;99163.50;1731725;80;20998;-57
2023/03/22 01:02:35;;;;;;;21.73;17.45;;;;;;;7.78;76.33;99161.80;1730691;79;21073;-57
2023/03/22 01:05:03;;;;;;;23.75;17.35;;;;;;;7.77;76.70;99153.63;1736341;80;21029;-57
2023/03/22 01:07:30;;;;;;;26.07;17.60;;;;;;;7.77;77.16;99154.09;1727699;80;20974;-57
2023/03/22 01:09:56;;;;;;;21.07;17.75;;;;;;;7.78;76.45;99157.91;1725565;80;21045;-57
2023/03/22 01:12:22;;;;;;;24.50;17.55;;;;;;;7.78;76.83;99156.60;1723416;81;21657;-56
2023/03/22 01:14:50;;;;;;;21.97;17.70;;;;;;;7.79;76.63;99155.70;1731911;80;21037;-57
2023/03/22 01:17:16;;;;;;;20.90;17.77;;;;;;;7.80;76.64;99154.78;1732957;80;21608;-57
2023/03/22 01:19:43;;;;;;;20.90;16.90;;;;;;;7.83;76.68;99152.05;1746036;80;21016;-56
2023/03/22 01:22:09;;;;;;;21.45;17.23;;;;;;;7.85;76.55;99150.23;1733717;80;21567;-57
2023/03/22 01:24:35;;;;;;;22.62;16.82;;;;;;;7.87;77.03;99146.70;1722782;80;21038;-57
2023/03/22 01:27:02;;;;;;;18.67;16.55;;;;;;;7.88;76.86;99145.81;1730062;80;21072;-57
2023/03/22 01:29:30;;;;;;;21.20;16.52;;;;;;;7.90;76.94;99141.36;1730186;80;21059;-57
2023/03/22 01:31:56;;;;;;;19.15;16.62;;;;;;;7.93;76.86;99143.86;1719144;81;21523;-57
2023/03/22 01:34:23;;;;;;;23.37;16.53;;;;;;;7.95;76.43;99134.20;1740119;80;21516;-57
2023/03/22 01:36:53;;;;;;;22.02;16.87;;;;;;;7.99;76.34;99127.97;1734038;80;21855;-57
2023/03/22 01:39:17;;;;;;;21.15;17.40;;;;;;;8.00;76.71;99134.84;1740489;80;21029;-57
2023/03/22 01:41:44;;;;;;;20.65;16.55;;;;;;;8.00;76.84;99133.55;1727846;80;21615;-57
2023/03/22 01:44:16;;;;;;;20.02;17.07;;;;;;;8.03;76.62;99133.40;1733540;80;21097;-57
2023/03/22 01:46:45;;;;;;;22.27;16.23;;;;;;;8.05;77.15;99130.28;1734253;81;21060;-57
2023/03/22 01:49:15;;;;;;;22.70;16.45;;;;;;;8.06;76.56;99128.05;1733073;80;20967;-57
2023/03/22 01:51:45;;;;;;;21.52;17.32;;;;;;;8.08;76.91;99119.73;1730849;80;21123;-57
2023/03/22 01:54:15;;;;;;;20.90;16.70;;;;;;;8.10;76.95;99114.02;1732197;80;21059;-58
2023/03/22 01:56:42;;;;;;;21.07;17.00;;;;;;;8.13;76.77;99115.17;1738939;80;21081;-57
2023/03/22 01:59:11;;;;;;;19.77;16.67;;;;;;;8.12;77.49;99113.46;1729086;80;21502;-57
2023/03/22 02:01:39;;;;;;;22.82;16.55;;;;;;;8.13;77.32;99107.37;1726906;80;21025;-56
2023/03/22 02:04:11;;;;;;;24.43;18.67;;;;;;;8.12;77.44;99100.46;1736224;81;21121;-57
2023/03/22 02:06:38;;;;;;;22.15;17.73;;;;;;;8.14;77.02;99100.41;1733683;80;21548;-56
2023/03/22 02:09:07;;;;;;;23.92;18.52;;;;;;;8.16;77.55;99099.41;1727052;80;21093;-57
2023/03/22 02:11:43;;;;;;;22.73;17.98;;;;;;;8.17;77.26;99098.95;1728088;80;21154;-57
2023/03/22 02:14:34;;;;;;;22.15;18.23;;;;;;;8.16;77.00;99094.22;1720965;80;20994;-57
2023/03/22 02:17:22;;;;;;;20.60;17.90;;;;;;;8.16;77.64;99094.22;1721923;81;21099;-57
2023/03/22 02:20:20;;;;;;;24.10;18.00;;;;;;;8.14;77.39;99095.20;1726238;81;21100;-57
2023/03/22 02:23:21;;;;;;;24.40;17.92;;;;;;;8.13;77.55;99098.27;1729229;80;21552;-57
2023/03/22 02:26:00;;;;;;;23.87;18.75;;;;;;;8.12;77.29;99090.06;1732350;80;21054;-57
2023/03/22 02:28:38;;;;;;;21.77;19.12;;;;;;;8.01;78.42;99093.63;1720294;81;21110;-57
2023/03/22 02:31:21;;;;;;;23.92;20.30;;;;;;;7.95;78.11;99084.81;1731125;80;21089;-57
2023/03/22 02:33:53;;;;;;;24.60;20.45;;;;;;;7.90;80.00;99089.38;1734519;80;21537;-57
2023/03/22 02:36:23;;;;;;;23.40;19.85;;;;;;;7.80;79.01;99083.31;1736432;80;21078;-57
2023/03/22 02:39:03;;;;;;;29.00;20.97;;;;;;;7.79;79.59;99089.44;1729742;80;20943;-58
2023/03/22 02:41:50;;;;;;;25.80;20.62;;;;;;;7.76;78.98;99078.35;1711798;80;21045;-57
2023/03/22 02:44:26;;;;;;;25.45;21.00;;;;;;;7.66;80.56;99070.58;1731339;80;20974;-57
2023/03/22 02:47:02;;;;;;;27.70;21.50;;;;;;;7.54;80.43;99074.58;1727120;80;21573;-57
2023/03/22 02:49:53;;;;;;;30.02;23.42;;;;;;;7.47;81.63;99067.50;1740468;80;21029;-57
2023/03/22 02:52:41;;;;;;;28.52;22.75;;;;;;;7.40;82.07;99064.34;1741124;80;21104;-58
2023/03/22 02:55:11;;;;;;;27.35;22.27;;;;;;;7.34;81.00;99076.31;1730004;80;21556;-57
2023/03/22 02:57:46;;;;;;;28.23;23.65;;;;;;;7.28;84.47;99072.70;1735668;80;21057;-58
2023/03/22 03:00:17;;;;;;;27.85;24.37;;;;;;;7.21;83.06;99071.27;1731485;80;21022;-57
2023/03/22 03:02:50;;;;;;;28.35;22.95;;;;;;;7.18;82.56;99070.10;1720699;80;21893;-57
2023/03/22 03:05:19;;;;;;;29.35;23.77;;;;;;;7.18;82.59;99067.51;1731570;80;20943;-57
2023/03/22 03:07:49;;;;;;;28.67;25.43;;;;;;;7.17;84.71;99058.05;1737000;80;21105;-57
2023/03/22 03:10:18;;;;;;;30.55;24.95;;;;;;;7.16;85.99;99053.74;1709726;80;21057;-57
2023/03/22 03:12:45;;;;;;;29.15;24.32;;;;;;;7.14;83.85;99052.95;1740814;80;21040;-57
2023/03/22 03:15:14;;;;;;;29.87;24.27;;;;;;;7.12;85.16;99058.70;1732390;80;21048;-56
2023/03/22 03:17:53;;;;;;;31.25;23.80;;;;;;;7.09;84.26;99048.45;1734494;80;21153;-56
2023/03/22 03:20:45;;;;;;;29.98;25.27;;;;;;;7.09;84.50;99052.34;1728819;80;21060;-57
2023/03/22 03:23:18;;;;;;;32.00;25.77;;;;;;;7.08;86.24;99055.83;1737456;80;21058;-57
2023/03/22 03:26:07;;;;;;;35.90;26.97;;;;;;;7.06;86.26;99052.48;1735396;80;21099;-57
2023/03/22 03:28:48;;;;;;;34.08;26.87;;;;;;;7.04;85.91;99046.50;1725731;80;21108;-57
2023/03/22 03:31:21;;;;;;;29.92;25.65;;;;;;;7.00;86.92;99045.80;1736072;80;21109;-57
2023/03/22 03:34:07;;;;;;;32.08;25.50;;;;;;;6.99;86.03;99045.85;1726989;81;21053;-57
2023/03/22 03:36:37;;;;;;;31.73;25.93;;;;;;;6.97;85.33;99052.86;1733727;80;21104;-56
2023/03/22 03:39:08;;;;;;;30.90;26.07;;;;;;;6.99;86.15;99061.42;1732201;80;21311;-57
2023/03/22 03:41:36;;;;;;;31.65;27.20;;;;;;;6.98;87.29;99055.86;1691904;83;21074;-57
2023/03/22 03:44:04;;;;;;;34.30;26.40;;;;;;;6.97;85.65;99056.28;1718606;81;21029;-57
2023/03/22 03:46:30;;;;;;;30.32;26.55;;;;;;;7.00;85.38;99067.86;1732700;80;21057;-57
2023/03/22 03:48:57;;;;;;;38.50;27.60;;;;;;;7.00;86.01;99063.10;1736986;80;21040;-57
2023/03/22 03:51:26;;;;;;;33.00;26.33;;;;;;;7.01;85.78;99060.91;1738936;80;21073;-57
2023/03/22 03:53:52;;;;;;;33.98;27.60;;;;;;;7.02;85.95;99062.13;1741793;80;21555;-57
2023/03/22 03:56:18;;;;;;;31.50;26.40;;;;;;;7.05;86.18;99059.86;1737897;80;21034;-57
2023/03/22 03:58:45;;;;;;;31.68;26.15;;;;;;;7.06;85.49;99052.48;1733114;80;21482;-57
2023/03/22 04:01:11;;;;;;;34.48;28.07;;;;;;;7.08;85.32;99049.34;1730760;80;21077;-57
2023/03/22 04:03:37;;;;;;;33.48;27.15;;;;;;;7.10;85.75;99054.02;1735157;80;21049;-57
2023/03/22 04:06:03;;;;;;;34.48;27.60;;;;;;;7.09;86.44;99046.69;1745418;80;21441;-57
2023/03/22 04:08:30;;;;;;;32.65;26.85;;;;;;;7.10;86.34;99046.23;1734997;81;21085;-57
2023/03/22 04:10:56;;;;;;;33.40;26.93;;;;;;;7.09;87.62;99045.85;1733763;80;21551;-57
2023/03/22 04:13:23;;;;;;;31.80;26.15;;;;;;;7.07;88.32;99042.47;1740728;80;21034;-57
2023/03/22 04:15:56;;;;;;;33.85;26.25;;;;;;;7.07;86.93;99043.77;1735524;80;21065;-57
2023/03/22 04:18:23;;;;;;;30.02;24.87;;;;;;;7.07;87.28;99039.88;1729569;80;21055;-57
2023/03/22 04:20:52;;;;;;;28.98;25.00;;;;;;;7.07;87.31;99038.58;1736422;80;21682;-57
2023/03/22 04:23:21;;;;;;;28.75;25.27;;;;;;;7.08;87.05;99035.06;1728094;80;21073;-57
2023/03/22 04:25:49;;;;;;;32.05;26.00;;;;;;;7.07;87.04;99036.81;1729262;80;21434;-57
2023/03/22 04:28:14;;;;;;;30.40;23.73;;;;;;;7.09;86.83;99032.87;1727963;80;21118;-57
2023/03/22 04:30:44;;;;;;;28.30;23.27;;;;;;;7.09;88.17;99032.87;1736113;80;21040;-57
2023/03/22 04:33:10;;;;;;;26.52;23.02;;;;;;;7.08;88.17;99027.27;1735974;80;21108;-57
2023/03/22 04:35:36;;;;;;;28.83;23.00;;;;;;;7.06;89.74;99016.14;1726094;80;21027;-57
2023/03/22 04:38:03;;;;;;;28.32;22.48;;;;;;;7.05;89.38;99017.03;1738604;80;21128;-57
2023/03/22 04:40:34;;;;;;;25.10;21.25;;;;;;;7.04;91.57;99012.76;1737601;80;21604;-57
2023/03/22 04:42:58;;;;;;;24.02;20.57;;;;;;;7.03;90.25;98992.88;1737354;80;21062;-57
2023/03/22 04:45:28;;;;;;;27.57;22.17;;;;;;;7.00;92.69;98994.32;1724593;80;21536;-57
2023/03/22 04:47:53;;;;;;;24.10;21.40;;;;;;;7.00;91.52;98998.21;1731577;81;21246;-57
2023/03/22 04:50:19;;;;;;;24.92;21.60;;;;;;;7.01;91.21;98997.33;1733542;80;21033;-57
2023/03/22 04:52:46;;;;;;;26.05;21.62;;;;;;;6.99;92.53;98988.75;1741727;80;21658;-57
2023/03/22 04:55:13;;;;;;;22.50;19.98;;;;;;;6.99;91.42;98990.05;1731434;81;21572;-57
2023/03/22 04:57:39;;;;;;;22.22;19.50;;;;;;;6.99;91.14;98986.16;1727531;80;21025;-57
2023/03/22 05:00:08;;;;;;;24.37;20.62;;;;;;;6.98;91.48;98983.19;1732964;80;21069;-57
2023/03/22 05:02:37;;;;;;;23.83;20.08;;;;;;;7.00;91.63;98987.83;1738195;80;21092;-57
2023/03/22 05:05:04;;;;;;;23.57;19.20;;;;;;;7.00;91.56;98996.48;1731477;80;21160;-57
2023/03/22 05:07:31;;;;;;;24.00;19.48;;;;;;;7.03;91.48;98996.78;1735340;80;21020;-57
2023/03/22 05:09:57;;;;;;;22.25;18.52;;;;;;;7.07;90.67;98991.85;1737301;80;20989;-57
2023/03/22 05:12:23;;;;;;;26.17;20.15;;;;;;;7.11;90.88;98993.39;1729548;81;21056;-57
2023/03/22 05:14:50;;;;;;;23.35;18.80;;;;;;;7.16;91.09;98996.63;1718893;81;21087;-58
2023/03/22 05:17:16;;;;;;;22.42;19.02;;;;;;;7.18;90.79;99003.44;1732128;80;21695;-57
2023/03/22 05:19:42;;;;;;;21.27;18.87;;;;;;;7.20;90.87;98998.19;1734504;80;21168;-57
2023/03/22 05:22:10;;;;;;;25.12;17.73;;;;;;;7.18;91.43;98993.05;1730988;80;21108;-57
2023/03/22 05:24:36;;;;;;;21.48;17.77;;;;;;;7.20;91.26;98987.80;1726251;81;21070;-57
2023/03/22 05:27:03;;;;;;;21.97;17.70;;;;;;;7.23;91.70;98990.26;1725784;80;21006;-58
2023/03/22 05:29:35;;;;;;;20.45;17.87;;;;;;;7.24;92.09;98997.13;1729593;81;21535;-57
2023/03/22 05:31:57;;;;;;;22.60;19.17;;;;;;;7.23;92.49;98998.05;1731058;81;21126;-57
2023/03/22 05:34:23;;;;;;;19.35;17.23;;;;;;;7.24;92.27;99003.62;1735708;80;21539;-57
2023/03/22 05:36:50;;;;;;;22.15;18.40;;;;;;;7.28;91.97;98996.09;1728738;81;22244;-57
2023/03/22 05:39:16;;;;;;;23.17;18.50;;;;;;;7.31;91.73;98995.95;1739894;80;21214;-57
2023/03/22 05:41:43;;;;;;;23.90;18.70;;;;;;;7.35;91.87;99001.38;1735554;80;21213;-57
2023/03/22 05:44:09;;;;;;;24.85;19.30;;;;;;;7.34;91.89;98993.21;1739644;80;21060;-57
2023/03/22 05:46:35;;;;;;;22.75;19.02;;;;;;;7.34;92.28;99001.00;1735253;80;21654;-57
2023/03/22 05:49:02;;;;;;;23.32;19.37;;;;;;;7.35;91.87;98992.28;1741962;80;21120;-57
2023/03/22 05:51:28;;;;;;;22.30;18.30;;;;;;;7.35;92.50;98990.16;1730398;80;21037;-57
2023/03/22 05:53:55;;;;;;;22.15;18.25;;;;;;;7.37;91.48;98998.26;1730936;80;20981;-57
2023/03/22 05:56:23;;;;;;;21.42;19.10;;;;;;;7.40;92.12;98995.98;1728789;80;21077;-57
2023/03/22 05:58:49;;;;;;;;;;;;;;;7.40;91.97;99008.51;1740340;80;21069;-57
2023/03/22 06:01:15;;;;;;;20.23;17.50;;;;;;;7.44;91.90;99000.57;1720677;80;20468;-57
2023/03/22 06:03:42;;;;;;;20.57;18.25;;;;;;;7.47;91.70;99016.02;1741193;80;21326;-57
2023/03/22 06:06:09;;;;;;;22.67;19.60;;;;;;;7.47;92.04;99008.22;1739809;80;21419;-56
2023/03/22 06:08:38;;;;;;;21.68;19.37;;;;;;;7.51;91.43;99007.19;1730086;80;21026;-56
2023/03/22 06:11:06;;;;;;;22.50;20.10;;;;;;;7.53;93.08;99002.73;1711524;80;21112;-56
2023/03/22 06:13:33;;;;;;;21.80;17.95;;;;;;;7.55;92.63;98999.16;1731626;80;21168;-56
2023/03/22 06:16:02;;;;;;;22.00;19.48;;;;;;;7.57;91.93;99001.70;1707771;81;21061;-56
2023/03/22 06:18:31;;;;;;;26.68;20.12;;;;;;;7.61;91.96;99011.02;1722021;80;21095;-56
2023/03/22 06:20:58;;;;;;;22.13;19.90;;;;;;;7.65;91.87;99012.58;1729333;80;21065;-57
2023/03/22 06:23:24;;;;;;;24.13;19.70;;;;;;;7.66;92.46;98996.06;1738010;80;21006;-57
2023/03/22 06:25:51;;;;;;;28.92;22.95;;;;;;;7.75;92.37;99006.02;1733793;80;20948;-56
2023/03/22 06:28:18;;;;;;;24.10;20.20;;;;;;;7.87;92.40;99001.16;1736485;80;21558;-56
2023/03/22 06:30:44;;;;;;;24.23;20.50;;;;;;;7.93;92.37;99000.42;1727432;80;21646;-56
2023/03/22 06:33:11;;;;;;;25.72;21.12;;;;;;;7.98;92.67;99006.68;1725825;80;21046;-56
2023/03/22 06:35:37;;;;;;;23.95;20.25;;;;;;;8.00;91.99;99000.49;1722307;81;21128;-55
2023/03/22 06:38:03;;;;;;;26.45;22.00;;;;;;;8.05;92.10;99010.68;1720998;81;20971;-56
2023/03/22 06:40:31;;;;;;;26.17;23.38;;;;;;;8.24;92.44;98995.87;1718880;80;21078;-56
2023/03/22 06:42:58;;;;;;;25.43;21.85;;;;;;;8.48;92.44;99000.79;1731315;81;22299;-56
2023/03/22 06:45:24;;;;;;;23.02;19.70;;;;;;;8.71;92.69;98997.88;1726675;80;21057;-55
2023/03/22 06:47:51;;;;;;;24.80;19.93;;;;;;;9.02;92.88;98988.48;1734173;80;21072;-56
2023/03/22 06:50:17;;;;;;;26.45;21.42;;;;;;;9.17;92.20;98992.87;1728683;80;21109;-55
2023/03/22 06:52:44;;;;;;;24.50;20.97;;;;;;;9.32;92.02;99004.70;1730929;80;20989;-55
2023/03/22 06:55:10;;;;;;;22.48;19.75;;;;;;;9.60;92.62;98998.36;1726088;80;21658;-56
2023/03/22 06:57:36;;;;;;;25.57;19.60;;;;;;;9.88;92.39;98996.84;1736582;80;21052;-56
2023/03/22 07:00:04;;;;;;;24.70;19.55;;;;;;;9.92;91.41;99002.75;1739903;80;21025;-56
2023/03/22 07:02:30;;;;;;;24.57;19.70;;;;;;;9.93;91.62;98998.73;1735649;80;21104;-55
2023/03/22 07:04:57;;;;;;;18.10;16.23;;;;;;;10.02;91.62;99002.12;1716399;80;21053;-56
2023/03/22 07:07:23;;;;;;;22.73;20.10;;;;;;;10.11;91.51;99003.83;1719385;81;21029;-56
2023/03/22 07:09:50;;;;;;;22.77;18.98;;;;;;;10.14;91.39;99001.05;1742266;80;21100;-56
2023/03/22 07:12:17;;;;;;;16.35;14.30;;;;;;;10.18;91.49;98998.66;1728342;80;21086;-56
2023/03/22 07:14:43;;;;;;;17.62;15.45;;;;;;;10.33;91.23;98984.75;1733361;80;20999;-55
2023/03/22 07:17:11;;;;;;;22.42;17.90;;;;;;;10.34;91.36;98987.75;1727183;82;21059;-56
2023/03/22 07:19:38;;;;;;;16.87;15.00;;;;;;;10.62;91.83;98987.45;1724856;80;20981;-56
2023/03/22 07:22:04;;;;;;;16.77;15.00;;;;;;;10.83;91.49;98991.37;1740089;80;22254;-56
2023/03/22 07:24:30;;;;;;;17.57;15.03;;;;;;;11.39;92.43;98979.22;1718607;81;21140;-57
2023/03/22 07:26:57;;;;;;;15.90;14.30;;;;;;;11.76;91.32;98976.92;1643135;84;21008;-57
2023/03/22 07:29:23;;;;;;;16.23;14.53;;;;;;;12.43;92.84;98967.75;1653953;84;21006;-57
2023/03/22 07:31:49;;;;;;;15.40;13.90;;;;;;;13.27;92.73;98961.64;1669343;84;21003;-57
2023/03/22 07:34:16;;;;;;;15.23;13.32;;;;;;;14.00;91.81;98958.98;1735522;80;21060;-56
2023/03/22 07:36:50;;;;;;;15.15;13.43;;;;;;;14.70;92.08;98949.41;1730481;80;20951;-56
2023/03/22 07:39:18;;;;;;;14.85;13.32;;;;;;;15.43;91.72;98951.57;1721128;80;21590;-56
2023/03/22 07:41:44;;;;;;;14.80;12.45;;;;;;;16.30;91.19;98946.28;1740666;80;21065;-56
2023/03/22 07:44:11;;;;;;;13.48;12.07;;;;;;;17.03;88.36;98946.31;1736263;80;21075;-56
2023/03/22 07:46:37;;;;;;;13.45;12.15;;;;;;;17.53;90.42;98950.30;1723067;81;21003;-57
2023/03/22 07:49:03;;;;;;;12.85;11.65;;;;;;;17.65;87.40;98939.96;1730586;80;21160;-56
2023/03/22 07:51:30;;;;;;;13.40;12.00;;;;;;;17.77;89.28;98942.48;1726181;80;21572;-56
2023/03/22 07:53:56;;;;;;;15.25;12.37;;;;;;;17.90;83.98;98943.09;1734298;80;21042;-56
2023/03/22 07:56:23;;;;;;;14.35;12.95;;;;;;;17.62;83.08;98937.59;1724844;80;21540;-56
2023/03/22 07:58:49;;;;;;;14.18;11.53;;;;;;;17.92;82.25;98941.61;1728150;80;21048;-56
2023/03/22 08:01:16;;;;;;;16.87;11.70;;;;;;;18.13;85.53;98934.89;1737897;80;21567;-56
2023/03/22 08:03:42;;;;;;;13.13;11.83;;;;;;;18.90;83.23;98941.35;1746893;80;21112;-57
2023/03/22 08:06:11;;;;;;;14.03;12.63;;;;;;;19.31;83.05;98943.21;1735747;81;21023;-56
2023/03/22 08:08:38;;;;;;;14.25;12.73;;;;;;;19.16;82.98;98934.94;1739508;80;21058;-56
2023/03/22 08:11:05;;;;;;;;;;;;;;;18.78;79.49;98943.34;1741675;81;21089;-56
2023/03/22 08:13:32;;;;;;;14.68;13.30;;;;;;;18.36;81.28;98948.14;1743352;80;20180;-56
2023/03/22 08:15:58;;;;;;;13.88;12.55;;;;;;;18.64;82.23;98946.91;1732358;80;20966;-56
2023/03/22 08:18:25;;;;;;;12.93;11.63;;;;;;;19.26;83.12;98942.81;1737361;80;21062;-56
2023/03/22 08:20:57;;;;;;;14.43;11.28;;;;;;;19.45;83.11;98940.06;1745758;80;21656;-56
2023/03/22 08:23:26;;;;;;;12.63;11.33;;;;;;;19.47;80.11;98945.72;1704266;81;21121;-56
2023/03/22 08:25:53;;;;;;;14.50;13.00;;;;;;;19.13;81.51;98937.02;1737086;80;21029;-57
2023/03/22 08:28:19;;;;;;;;;;;;;;;18.95;76.53;98944.41;1734699;80;21155;-57
2023/03/22 08:30:47;;;;;;;13.95;11.12;;;;;;;18.83;75.71;98941.60;1735796;80;20177;-56
2023/03/22 08:33:14;;;;;;;12.78;11.10;;;;;;;19.71;82.53;98939.38;1734460;80;21073;-57
2023/03/22 08:35:43;;;;;;;12.63;11.22;;;;;;;20.52;79.35;98941.08;1734919;80;21029;-57
2023/03/22 08:38:10;;;;;;;12.58;11.33;;;;;;;20.85;80.09;98934.20;1725901;80;21131;-56
2023/03/22 08:40:36;;;;;;;11.38;10.28;;;;;;;22.02;81.23;98922.81;1730854;80;21001;-57
2023/03/22 08:43:03;;;;;;;11.83;10.60;;;;;;;22.73;79.47;98925.78;1733997;81;21080;-57
2023/03/22 08:45:29;;;;;;;11.85;10.65;;;;;;;23.26;78.46;98925.63;1737934;80;21104;-56
2023/03/22 08:47:58;;;;;;;12.58;10.75;;;;;;;23.44;76.23;98924.89;1733651;80;21580;-57
2023/03/22 08:50:28;;;;;;;13.03;10.65;;;;;;;22.93;72.70;98927.55;1724124;80;21129;-56
2023/03/22 08:52:55;;;;;;;10.93;9.90;;;;;;;22.50;75.42;98929.14;1724063;80;21072;-56
2023/03/22 08:55:21;;;;;;;;;;;;;;;22.60;75.05;98915.64;1739660;80;21096;-56
2023/03/22 08:57:49;;;;;;;12.95;10.95;;;;;;;22.79;76.36;98918.44;1740758;80;20121;-56
2023/03/22 09:00:17;;;;;;;11.73;10.53;;;;;;;22.70;67.75;98907.49;1743569;80;20990;-56
2023/03/22 09:02:43;;;;;;;10.93;9.83;;;;;;;22.31;71.45;98905.55;1732310;80;21506;-56
2023/03/22 09:05:10;;;;;;;;;;;;;;;23.13;75.85;98902.21;1737051;80;21601;-56
2023/03/22 09:07:36;;;;;;;10.32;9.33;;;;;;;23.63;74.17;98906.79;1730299;81;20105;-57
2023/03/22 09:10:03;;;;;;;;;;;;;;;22.63;73.56;98898.52;1731013;81;21062;-57
2023/03/22 09:12:30;;;;;;;10.23;9.23;;;;;;;21.40;69.47;98904.61;1738711;80;20206;-57
2023/03/22 09:14:56;;;;;;;10.90;9.65;;;;;;;20.67;70.59;98902.91;1742285;80;21112;-56
2023/03/22 09:17:26;;;;;;;11.30;8.85;;;;;;;19.92;70.44;98911.29;1723031;81;21110;-57
2023/03/22 09:19:52;;;;;;;9.23;8.28;;;;;;;19.44;71.73;98906.64;1740421;80;22385;-56
2023/03/22 09:22:19;;;;;;;9.23;8.25;;;;;;;18.81;69.70;98907.02;1729432;80;21485;-58
2023/03/22 09:24:45;;;;;;;9.20;7.77;;;;;;;17.99;71.25;98909.73;1726335;80;21119;-57
2023/03/22 09:27:11;;;;;;;9.10;8.07;;;;;;;17.34;70.54;98919.91;1728385;81;21525;-57
2023/03/22 09:29:39;;;;;;;12.28;8.18;;;;;;;17.06;71.18;98911.77;1736844;80;21610;-57
2023/03/22 09:32:05;;;;;;;;;;;;;;;17.03;71.30;98909.39;1739396;80;21040;-56
2023/03/22 09:34:31;;;;;;;9.80;6.87;;;;;;;17.19;71.01;98909.70;1734162;80;20220;-56
2023/03/22 09:37:01;;;;;;;8.58;7.60;;;;;;;18.81;71.06;98903.05;1732485;80;21072;-57
2023/03/22 09:39:27;;;;;;;7.22;6.53;;;;;;;18.69;67.53;98902.38;1733628;80;21066;-57
2023/03/22 09:42:03;;;;;;;9.18;7.65;;;;;;;18.10;68.03;98899.84;1743006;80;21056;-58
2023/03/22 09:44:33;;;;;;;8.05;7.22;;;;;;;17.87;68.26;98909.03;1733526;80;21080;-57
2023/03/22 09:47:03;;;;;;;10.90;7.35;;;;;;;17.96;69.61;98898.95;1745545;80;21016;-57
2023/03/22 09:49:38;;;;;;;8.05;7.25;;;;;;;18.26;69.11;98903.70;1735284;80;21000;-56
2023/03/22 09:52:12;;;;;;;8.18;7.37;;;;;;;18.94;70.21;98891.17;1699956;82;21603;-56
2023/03/22 09:54:44;;;;;;;8.00;7.20;;;;;;;19.08;65.62;98895.64;1671838;83;21035;-56
2023/03/22 09:57:37;;;;;;;8.90;7.72;;;;;;;18.67;64.97;98885.81;1657164;83;20998;-56
2023/03/22 10:00:23;;;;;;;9.40;8.30;;;;;;;18.24;67.02;98884.53;1722713;81;22142;-56
2023/03/22 10:03:02;;;;;;;8.28;7.47;;;;;;;18.96;65.70;98886.57;1722656;81;21096;-57
2023/03/22 10:05:38;;;;;;;8.40;7.40;;;;;;;19.47;67.81;98887.48;1674913;83;21499;-57
2023/03/22 10:08:08;;;;;;;8.20;7.40;;;;;;;19.38;67.91;98883.89;1681205;83;21063;-57
2023/03/22 10:10:35;;;;;;;11.03;7.40;;;;;;;19.55;67.42;98884.42;1690763;83;21171;-56
2023/03/22 10:13:06;;;;;;;9.50;8.43;;;;;;;19.87;67.64;98883.91;1685288;83;21028;-56
2023/03/22 10:15:36;;;;;;;12.45;9.90;;;;;;;20.05;67.08;98893.66;1681119;83;21093;-56
2023/03/22 10:18:06;;;;;;;10.70;9.35;;;;;;;20.89;68.36;98888.27;1685885;83;21071;-57
2023/03/22 10:20:47;;;;;;;9.70;8.80;;;;;;;22.66;66.17;98883.54;1687203;83;21520;-56
2023/03/22 10:23:39;;;;;;;9.60;7.72;;;;;;;24.35;61.69;98883.26;1687833;83;21070;-57
2023/03/22 10:26:07;;;;;;;8.48;7.53;;;;;;;25.27;66.03;98875.95;1680503;83;21244;-56
2023/03/22 10:28:37;;;;;;;7.80;6.83;;;;;;;26.84;68.07;98874.06;1679582;83;21103;-56
2023/03/22 10:31:05;;;;;;;9.65;8.10;;;;;;;26.86;65.26;98868.48;1683272;83;21058;-56
2023/03/22 10:33:48;;;;;;;8.23;7.42;;;;;;;26.83;65.07;98868.41;1692570;83;21083;-57
2023/03/22 10:36:12;;;;;;;8.55;7.75;;;;;;;26.51;65.22;98869.84;1678833;83;21124;-57
2023/03/22 10:38:42;;;;;;;7.53;6.83;;;;;;;27.44;62.03;98859.06;1687278;83;21031;-57
2023/03/22 10:41:11;;;;;;;8.93;8.03;;;;;;;27.74;61.23;98853.88;1661574;83;21000;-57
2023/03/22 10:43:39;;;;;;;11.35;8.85;;;;;;;27.81;58.73;98846.19;1722415;80;21124;-57
2023/03/22 10:46:09;;;;;;;11.20;8.18;;;;;;;26.08;50.40;98843.98;1724340;81;21562;-57
2023/03/22 10:48:40;;;;;;;8.65;7.75;;;;;;;26.87;54.50;98838.84;1726812;81;21004;-57
2023/03/22 10:51:09;;;;;;;10.30;8.80;;;;;;;28.24;54.62;98837.71;1720811;81;20995;-58
2023/03/22 10:53:46;;;;;;;7.62;6.78;;;;;;;28.90;45.03;98826.52;1730992;80;21034;-56
2023/03/22 10:56:18;;;;;;;10.10;7.40;;;;;;;29.33;55.49;98824.08;1715049;81;21508;-55
2023/03/22 10:58:46;;;;;;;7.90;6.95;;;;;;;30.35;52.15;98833.38;1741060;80;21064;-56
2023/03/22 11:01:15;;;;;;;6.45;5.85;;;;;;;31.20;45.34;98828.58;1725256;80;21061;-55
2023/03/22 11:03:51;;;;;;;17.20;7.67;;;;;;;31.98;50.16;98828.21;1734313;81;21524;-56
2023/03/22 11:06:19;;;;;;;;;;;;;;;32.20;49.41;98831.98;1737217;80;21070;-57
2023/03/22 11:08:51;;;;;;;5.92;5.37;;;;;;;32.75;41.79;98828.91;1734395;79;20107;-56
2023/03/22 11:11:30;;;;;;;5.53;5.03;;;;;;;33.00;49.64;98841.34;1740730;81;21062;-56
2023/03/22 11:14:05;;;;;;;5.85;5.20;;;;;;;33.99;48.24;98840.98;1737317;80;21130;-56
2023/03/22 11:16:54;;;;;;;5.78;5.28;;;;;;;34.82;46.78;98849.28;1719747;80;21024;-56
2023/03/22 11:19:25;;;;;;;6.42;5.58;;;;;;;33.54;44.91;98847.80;1733508;80;20982;-56
2023/03/22 11:21:57;;;;;;;7.10;5.53;;;;;;;30.82;41.29;98839.12;1725663;80;21072;-56
2023/03/22 11:24:31;;;;;;;6.95;6.25;;;;;;;28.24;41.62;98848.45;1723664;80;20994;-56
2023/03/22 11:27:06;;;;;;;7.72;6.92;;;;;;;26.32;42.84;98856.60;1725785;80;20943;-55
2023/03/22 11:29:49;;;;;;;8.28;7.40;;;;;;;24.61;41.53;98851.84;1727877;81;21210;-55
2023/03/22 11:32:28;;;;;;;7.60;6.85;;;;;;;23.86;42.07;98843.70;1721239;80;21066;-55
2023/03/22 11:35:24;;;;;;;10.72;8.23;;;;;;;23.10;43.30;98847.16;1732270;80;21062;-55
2023/03/22 11:37:53;;;;;;;8.00;7.28;;;;;;;22.40;42.81;98851.34;1734425;80;21120;-55